Time,TemperatureF,DewpointF,PressureIn,WindDirection,WindDirectionDegrees,WindSpeedMPH,WindSpeedGustMPH,Humidity,HourlyPrecipIn,Conditions,Clouds,dailyrainin,SoftwareType,DateUTC
2013-03-07 00:09:00,-999.0,-99.9,29.79,North,-999,-999.0,-999.0,-999,-99.99,,,0.00,weatherlink.com 1.10,2013-03-07 08:09:00,
2013-03-07 00:24:00,-999.0,-99.9,29.79,North,-999,-999.0,-999.0,-999,-99.99,,,0.00,weatherlink.com 1.10,2013-03-07 08:24:00,
2013-03-07 00:39:00,-999.0,-99.9,29.79,North,-999,-999.0,-999.0,-999,-99.99,,,0.00,weatherlink.com 1.10,2013-03-07 08:39:00,
2013-03-07 00:54:00,-999.0,-99.9,29.80,North,-999,-999.0,-999.0,-999,-99.99,,,0.00,weatherlink.com 1.10,2013-03-07 08:54:00,
2013-03-07 01:08:00,-999.0,-99.9,29.80,North,-999,-999.0,-999.0,-999,-99.99,,,0.00,weatherlink.com 1.10,2013-03-07 09:08:00,
2013-03-07 01:24:00,-999.0,-99.9,29.81,North,-999,-999.0,-999.0,-999,-99.99,,,0.00,weatherlink.com 1.10,2013-03-07 09:24:00,
2013-03-07 01:39:00,-999.0,-99.9,29.81,North,-999,-999.0,-999.0,-999,-99.99,,,0.00,weatherlink.com 1.10,2013-03-07 09:39:00,
2013-03-07 02:09:00,-999.0,-99.9,29.82,North,-999,-999.0,-999.0,-999,-99.99,,,0.00,weatherlink.com 1.10,2013-03-07 10:09:00,
2013-03-07 02:24:00,-999.0,-99.9,29.82,North,-999,-999.0,-999.0,-999,-99.99,,,0.00,weatherlink.com 1.10,2013-03-07 10:24:00,
2013-03-07 03:09:00,-999.0,-99.9,29.83,North,-999,-999.0,-999.0,-999,-99.99,,,0.00,weatherlink.com 1.10,2013-03-07 11:09:00,
2013-03-07 03:24:00,-999.0,-99.9,29.83,North,-999,-999.0,-999.0,-999,-99.99,,,0.00,weatherlink.com 1.10,2013-03-07 11:24:00,
2013-03-07 03:39:00,-999.0,-99.9,29.83,North,-999,-999.0,-999.0,-999,-99.99,,,0.00,weatherlink.com 1.10,2013-03-07 11:39:00,
2013-03-07 03:54:00,-999.0,-99.9,29.84,North,-999,-999.0,-999.0,-999,-99.99,,,0.00,weatherlink.com 1.10,2013-03-07 11:54:00,
2013-03-07 04:09:00,-999.0,-99.9,29.84,North,-999,-999.0,-999.0,-999,-99.99,,,0.00,weatherlink.com 1.10,2013-03-07 12:09:00,
2013-03-07 04:24:00,-999.0,-99.9,29.85,North,-999,-999.0,-999.0,-999,-99.99,,,0.00,weatherlink.com 1.10,2013-03-07 12:24:00,
2013-03-07 04:39:00,-999.0,-99.9,29.85,North,-999,-999.0,-999.0,-999,-99.99,,,0.00,weatherlink.com 1.10,2013-03-07 12:39:00,
2013-03-07 04:54:00,-999.0,-99.9,29.85,North,-999,-999.0,-999.0,-999,-99.99,,,0.00,weatherlink.com 1.10,2013-03-07 12:54:00,
2013-03-07 05:09:00,-999.0,-99.9,29.86,North,-999,-999.0,-999.0,-999,-99.99,,,0.00,weatherlink.com 1.10,2013-03-07 13:09:00,
2013-03-07 05:24:00,-999.0,-99.9,29.86,North,-999,-999.0,-999.0,-999,-99.99,,,0.00,weatherlink.com 1.10,2013-03-07 13:24:00,
2013-03-07 05:39:00,-999.0,-99.9,29.87,North,-999,-999.0,-999.0,-999,-99.99,,,0.00,weatherlink.com 1.10,2013-03-07 13:39:00,
2013-03-07 05:54:00,-999.0,-99.9,29.87,North,-999,-999.0,-999.0,-999,-99.99,,,0.00,weatherlink.com 1.10,2013-03-07 13:54:00,
2013-03-07 06:09:00,-999.0,-99.9,29.87,North,-999,-999.0,-999.0,-999,-99.99,,,0.00,weatherlink.com 1.10,2013-03-07 14:09:00,
2013-03-07 06:24:00,-999.0,-99.9,29.88,North,-999,-999.0,-999.0,-999,-99.99,,,0.00,weatherlink.com 1.10,2013-03-07 14:24:00,
2013-03-07 06:39:00,-999.0,-99.9,29.88,North,-999,-999.0,-999.0,-999,-99.99,,,0.00,weatherlink.com 1.10,2013-03-07 14:39:00,
2013-03-07 06:54:00,-999.0,-99.9,29.88,North,-999,-999.0,-999.0,-999,-99.99,,,0.00,weatherlink.com 1.10,2013-03-07 14:54:00,
2013-03-07 07:09:00,-999.0,-99.9,29.88,North,-999,-999.0,-999.0,-999,-99.99,,,0.00,weatherlink.com 1.10,2013-03-07 15:09:00,
2013-03-07 07:24:00,-999.0,-99.9,29.89,North,-999,-999.0,-999.0,-999,-99.99,,,0.00,weatherlink.com 1.10,2013-03-07 15:24:00,
2013-03-07 07:39:00,-999.0,-99.9,29.89,North,-999,-999.0,-999.0,-999,-99.99,,,0.00,weatherlink.com 1.10,2013-03-07 15:39:00,
2013-03-07 07:54:00,-999.0,-99.9,29.90,North,-999,-999.0,-999.0,-999,-99.99,,,0.00,weatherlink.com 1.10,2013-03-07 15:54:00,
2013-03-07 08:09:00,-999.0,-99.9,29.90,North,-999,-999.0,-999.0,-999,-99.99,,,0.00,weatherlink.com 1.10,2013-03-07 16:09:00,
2013-03-07 08:24:00,-999.0,-99.9,29.90,North,-999,-999.0,-999.0,-999,-99.99,,,0.00,weatherlink.com 1.10,2013-03-07 16:24:00,
2013-03-07 08:39:00,-999.0,-99.9,29.91,North,-999,-999.0,-999.0,-999,-99.99,,,0.00,weatherlink.com 1.10,2013-03-07 16:39:00,
2013-03-07 08:54:00,-999.0,-99.9,29.91,North,-999,-999.0,-999.0,-999,-99.99,,,0.00,weatherlink.com 1.10,2013-03-07 16:54:00,
2013-03-07 09:09:00,-999.0,-99.9,29.91,North,-999,-999.0,-999.0,-999,-99.99,,,0.00,weatherlink.com 1.10,2013-03-07 17:09:00,
2013-03-07 09:24:00,-999.0,-99.9,29.92,North,-999,-999.0,-999.0,-999,-99.99,,,0.00,weatherlink.com 1.10,2013-03-07 17:24:00,
2013-03-07 09:39:00,-999.0,-99.9,29.93,North,-999,-999.0,-999.0,-999,-99.99,,,0.00,weatherlink.com 1.10,2013-03-07 17:39:00,
2013-03-07 09:54:00,-999.0,-99.9,29.93,North,-999,-999.0,-999.0,-999,-99.99,,,0.00,weatherlink.com 1.10,2013-03-07 17:54:00,
2013-03-07 10:08:00,-999.0,-99.9,29.94,North,-999,-999.0,-999.0,-999,-99.99,,,0.00,weatherlink.com 1.10,2013-03-07 18:08:00,
2013-03-07 10:23:00,-999.0,-99.9,29.94,North,-999,-999.0,-999.0,-999,-99.99,,,0.00,weatherlink.com 1.10,2013-03-07 18:23:00,
2013-03-07 10:38:00,-999.0,-99.9,29.94,North,-999,-999.0,-999.0,-999,-99.99,,,0.00,weatherlink.com 1.10,2013-03-07 18:38:00,
2013-03-07 10:53:00,-999.0,-99.9,29.94,North,-999,-999.0,-999.0,-999,-99.99,,,0.00,weatherlink.com 1.10,2013-03-07 18:53:00,
2013-03-07 11:08:00,-999.0,-99.9,29.94,North,-999,-999.0,-999.0,-999,-99.99,,,0.00,weatherlink.com 1.10,2013-03-07 19:08:00,
2013-03-07 11:23:00,-999.0,-99.9,29.95,North,-999,-999.0,-999.0,-999,-99.99,,,0.00,weatherlink.com 1.10,2013-03-07 19:23:00,
2013-03-07 11:38:00,-999.0,-99.9,29.95,North,-999,-999.0,-999.0,-999,-99.99,,,0.00,weatherlink.com 1.10,2013-03-07 19:38:00,
2013-03-07 11:53:00,47.0,43.0,29.95,SSW,211,3.0,-999.0,87,-99.99,,,0.00,weatherlink.com 1.10,2013-03-07 19:53:00,
2013-03-07 12:08:00,47.5,44.0,29.95,SSW,210,2.0,-999.0,86,-99.99,,,0.00,weatherlink.com 1.10,2013-03-07 20:08:00,
2013-03-07 12:23:00,48.3,43.0,29.95,SW,230,3.0,-999.0,83,-99.99,,,0.00,weatherlink.com 1.10,2013-03-07 20:23:00,
2013-03-07 12:38:00,48.3,43.0,29.95,WSW,240,2.0,-999.0,83,-99.99,,,0.00,weatherlink.com 1.10,2013-03-07 20:38:00,
2013-03-07 12:53:00,48.9,44.0,29.94,South,186,1.0,-999.0,82,-99.99,,,0.00,weatherlink.com 1.10,2013-03-07 20:53:00,
2013-03-07 13:08:00,49.1,43.0,29.94,SSW,209,2.0,-999.0,80,-99.99,,,0.00,weatherlink.com 1.10,2013-03-07 21:08:00,
2013-03-07 13:23:00,48.8,43.0,29.94,WSW,242,2.0,-999.0,80,-99.99,,,0.00,weatherlink.com 1.10,2013-03-07 21:23:00,
2013-03-07 13:38:00,49.5,44.0,29.94,WNW,295,2.0,-999.0,81,-99.99,,,0.00,weatherlink.com 1.10,2013-03-07 21:38:00,
2013-03-07 13:53:00,49.4,44.0,29.94,SW,222,1.0,-999.0,80,-99.99,,,0.00,weatherlink.com 1.10,2013-03-07 21:53:00,
2013-03-07 14:23:00,49.6,43.0,29.94,SSW,205,0.0,-999.0,79,-99.99,,,0.00,weatherlink.com 1.10,2013-03-07 22:23:00,
2013-03-07 14:38:00,49.7,43.0,29.94,WSW,244,1.0,-999.0,78,-99.99,,,0.00,weatherlink.com 1.10,2013-03-07 22:38:00,
2013-03-07 15:08:00,49.8,43.0,29.94,SW,230,1.0,-999.0,77,-99.99,,,0.00,weatherlink.com 1.10,2013-03-07 23:08:00,
2013-03-07 15:23:00,50.1,44.0,29.94,SW,231,2.0,-999.0,79,-99.99,,,0.00,weatherlink.com 1.10,2013-03-07 23:23:00,
2013-03-07 15:38:00,50.7,43.0,29.94,WSW,240,2.0,-999.0,75,-99.99,,,0.00,weatherlink.com 1.10,2013-03-07 23:38:00,
2013-03-07 15:53:00,50.7,43.0,29.94,WSW,240,0.0,-999.0,74,-99.99,,,0.00,weatherlink.com 1.10,2013-03-07 23:53:00,
2013-03-07 16:08:00,51.4,43.0,29.93,WSW,240,0.0,-999.0,72,-99.99,,,0.00,weatherlink.com 1.10,2013-03-08 00:08:00,
2013-03-07 16:23:00,51.3,42.0,29.93,WSW,240,1.0,-999.0,71,-99.99,,,0.00,weatherlink.com 1.10,2013-03-08 00:23:00,
2013-03-07 16:38:00,50.7,43.0,29.93,WSW,257,0.0,-999.0,75,-99.99,,,0.00,weatherlink.com 1.10,2013-03-08 00:38:00,
2013-03-07 16:53:00,51.3,43.0,29.94,WSW,258,0.0,-999.0,74,-99.99,,,0.00,weatherlink.com 1.10,2013-03-08 00:53:00,
2013-03-07 17:08:00,51.5,44.0,29.94,WSW,258,0.0,-999.0,75,-99.99,,,0.00,weatherlink.com 1.10,2013-03-08 01:08:00,
2013-03-07 17:23:00,50.4,44.0,29.93,WSW,258,0.0,-999.0,79,-99.99,,,0.00,weatherlink.com 1.10,2013-03-08 01:23:00,
2013-03-07 17:38:00,48.4,43.0,29.94,WSW,257,0.0,-999.0,82,-99.99,,,0.00,weatherlink.com 1.10,2013-03-08 01:38:00,
2013-03-07 17:53:00,46.7,43.0,29.94,WSW,257,0.0,-999.0,86,-99.99,,,0.00,weatherlink.com 1.10,2013-03-08 01:53:00,
2013-03-07 18:08:00,-999.0,-99.9,29.95,North,-999,-999.0,-999.0,-999,-99.99,,,0.00,weatherlink.com 1.10,2013-03-08 02:08:00,
2013-03-07 18:23:00,-999.0,-99.9,29.95,North,-999,-999.0,-999.0,-999,-99.99,,,0.00,weatherlink.com 1.10,2013-03-08 02:23:00,
2013-03-07 18:38:00,-999.0,-99.9,29.95,North,-999,-999.0,-999.0,-999,-99.99,,,0.00,weatherlink.com 1.10,2013-03-08 02:38:00,
2013-03-07 18:53:00,-999.0,-99.9,29.95,North,-999,-999.0,-999.0,-999,-99.99,,,0.00,weatherlink.com 1.10,2013-03-08 02:53:00,
2013-03-07 19:08:00,-999.0,-99.9,29.96,North,-999,-999.0,-999.0,-999,-99.99,,,0.00,weatherlink.com 1.10,2013-03-08 03:08:00,
2013-03-07 19:38:00,-999.0,-99.9,29.96,North,-999,-999.0,-999.0,-999,-99.99,,,0.00,weatherlink.com 1.10,2013-03-08 03:38:00,
2013-03-07 19:53:00,-999.0,-99.9,29.96,North,-999,-999.0,-999.0,-999,-99.99,,,0.00,weatherlink.com 1.10,2013-03-08 03:53:00,
2013-03-07 20:08:00,-999.0,-99.9,29.96,North,-999,-999.0,-999.0,-999,-99.99,,,0.00,weatherlink.com 1.10,2013-03-08 04:08:00,
2013-03-07 20:23:00,-999.0,-99.9,29.96,North,-999,-999.0,-999.0,-999,-99.99,,,0.00,weatherlink.com 1.10,2013-03-08 04:23:00,
2013-03-07 20:38:00,-999.0,-99.9,29.97,North,-999,-999.0,-999.0,-999,-99.99,,,0.00,weatherlink.com 1.10,2013-03-08 04:38:00,
2013-03-07 20:53:00,-999.0,-99.9,29.97,North,-999,-999.0,-999.0,-999,-99.99,,,0.00,weatherlink.com 1.10,2013-03-08 04:53:00,
2013-03-07 21:08:00,-999.0,-99.9,29.97,North,-999,-999.0,-999.0,-999,-99.99,,,0.00,weatherlink.com 1.10,2013-03-08 05:08:00,
2013-03-07 21:23:00,-999.0,-99.9,29.97,North,-999,-999.0,-999.0,-999,-99.99,,,0.00,weatherlink.com 1.10,2013-03-08 05:23:00,
2013-03-07 21:38:00,-999.0,-99.9,29.97,North,-999,-999.0,-999.0,-999,-99.99,,,0.00,weatherlink.com 1.10,2013-03-08 05:38:00,
2013-03-07 21:53:00,-999.0,-99.9,29.97,North,-999,-999.0,-999.0,-999,-99.99,,,0.00,weatherlink.com 1.10,2013-03-08 05:53:00,
2013-03-07 22:08:00,-999.0,-99.9,29.97,North,-999,-999.0,-999.0,-999,-99.99,,,0.00,weatherlink.com 1.10,2013-03-08 06:08:00,
2013-03-07 22:23:00,-999.0,-99.9,29.98,North,-999,-999.0,-999.0,-999,-99.99,,,0.00,weatherlink.com 1.10,2013-03-08 06:23:00,
2013-03-07 22:38:00,-999.0,-99.9,29.98,North,-999,-999.0,-999.0,-999,-99.99,,,0.00,weatherlink.com 1.10,2013-03-08 06:38:00,
2013-03-07 22:53:00,-999.0,-99.9,29.98,North,-999,-999.0,-999.0,-999,-99.99,,,0.00,weatherlink.com 1.10,2013-03-08 06:53:00,
2013-03-07 23:08:00,-999.0,-99.9,29.98,North,-999,-999.0,-999.0,-999,-99.99,,,0.00,weatherlink.com 1.10,2013-03-08 07:08:00,
2013-03-07 23:23:00,-999.0,-99.9,29.98,North,-999,-999.0,-999.0,-999,-99.99,,,0.00,weatherlink.com 1.10,2013-03-08 07:23:00,
2013-03-07 23:38:00,-999.0,-99.9,29.98,North,-999,-999.0,-999.0,-999,-99.99,,,0.00,weatherlink.com 1.10,2013-03-08 07:38:00,
2013-03-07 23:53:00,-999.0,-99.9,29.97,North,-999,-999.0,-999.0,-999,-99.99,,,0.00,weatherlink.com 1.10,2013-03-08 07:53:00,